createdAt,value
2022-12-04T00:02:04.577Z,93.31
2022-12-04T00:04:51.194Z,93.26
2022-12-04T00:07:38.067Z,93.30
2022-12-04T00:10:24.810Z,93.38
2022-12-04T00:13:11.709Z,93.49
2022-12-04T00:15:59.317Z,93.40
2022-12-04T00:18:46.855Z,93.37
2022-12-04T00:21:33.772Z,93.38
2022-12-04T00:24:20.155Z,93.40
2022-12-04T00:27:06.590Z,93.42
2022-12-04T00:29:54.193Z,93.29
2022-12-04T00:32:40.943Z,93.38
2022-12-04T00:35:27.450Z,93.40
2022-12-04T00:38:14.341Z,93.40
2022-12-04T00:41:03.558Z,93.30
2022-12-04T00:43:50.423Z,93.33
2022-12-04T00:46:36.878Z,93.33
2022-12-04T00:49:23.524Z,93.27
2022-12-04T00:52:09.934Z,93.25
2022-12-04T00:54:56.948Z,93.19
2022-12-04T00:57:43.366Z,93.15
2022-12-04T01:00:30.496Z,93.20
2022-12-04T01:03:17.172Z,93.21
2022-12-04T01:06:04.361Z,93.14
2022-12-04T01:08:52.161Z,93.14
2022-12-04T01:11:38.807Z,93.14
2022-12-04T01:14:25.599Z,93.18
2022-12-04T01:17:13.229Z,93.15
2022-12-04T01:19:59.841Z,93.16
2022-12-04T01:22:47.620Z,93.05
2022-12-04T01:25:34.373Z,93.06
2022-12-04T01:28:21.569Z,93.13
2022-12-04T01:31:17.457Z,93.10
2022-12-04T01:34:04.298Z,92.94
2022-12-04T01:36:51.499Z,92.91
2022-12-04T01:39:37.940Z,92.88
2022-12-04T01:42:25.577Z,92.90
2022-12-04T01:45:47.329Z,93.06
2022-12-04T01:48:37.754Z,93.08
2022-12-04T01:51:33.822Z,93.11
2022-12-04T01:54:28.684Z,93.09
2022-12-04T01:57:18.334Z,93.15
2022-12-04T02:00:09.342Z,93.07
2022-12-04T02:02:56.074Z,93.11
2022-12-04T02:05:43.037Z,92.93
2022-12-04T02:08:30.642Z,92.91
2022-12-04T02:11:32.257Z,92.92
2022-12-04T02:14:37.734Z,92.89
2022-12-04T02:17:27.266Z,92.80
2022-12-04T02:20:42.714Z,92.89
2022-12-04T02:24:00.121Z,92.75
2022-12-04T02:26:53.353Z,92.74
2022-12-04T02:30:04.419Z,92.78
2022-12-04T02:33:33.512Z,92.86
2022-12-04T02:36:24.243Z,92.85
2022-12-04T02:39:41.802Z,92.73
2022-12-04T02:42:45.143Z,92.73
2022-12-04T02:45:38.057Z,92.67
2022-12-04T02:48:28.586Z,92.65
2022-12-04T02:51:18.552Z,92.76
2022-12-04T02:54:14.310Z,92.89
2022-12-04T02:57:04.842Z,92.85
2022-12-04T02:59:54.047Z,92.79
2022-12-04T03:03:06.088Z,92.81
2022-12-04T03:06:04.946Z,92.82
2022-12-04T03:08:57.488Z,92.72
2022-12-04T03:11:50.065Z,92.83
2022-12-04T03:14:43.090Z,92.93
2022-12-04T03:17:39.911Z,92.89
2022-12-04T03:20:28.456Z,92.72
2022-12-04T03:23:20.979Z,92.67
2022-12-04T03:26:15.737Z,92.62
2022-12-04T03:29:11.989Z,92.66
2022-12-04T03:32:11.574Z,92.58
2022-12-04T03:35:15.972Z,92.64
2022-12-04T03:38:08.671Z,92.73
2022-12-04T03:41:33.483Z,92.71
2022-12-04T03:44:39.001Z,92.69
2022-12-04T03:47:46.651Z,92.73
2022-12-04T03:50:46.801Z,92.73
2022-12-04T03:53:47.551Z,92.75
2022-12-04T03:56:40.652Z,92.59
2022-12-04T03:59:35.311Z,92.61
2022-12-04T04:02:25.431Z,92.82
2022-12-04T04:05:14.932Z,92.90
2022-12-04T04:08:24.019Z,92.83
2022-12-04T04:11:17.844Z,92.94
2022-12-04T04:14:30.984Z,92.94
2022-12-04T04:17:41.446Z,92.92
2022-12-04T04:20:55.649Z,92.88
2022-12-04T04:24:05.291Z,92.97
2022-12-04T04:26:53.097Z,93.03
2022-12-04T04:29:42.097Z,93.00
2022-12-04T04:32:43.329Z,92.91
2022-12-04T04:36:02.663Z,92.92
2022-12-04T04:39:26.895Z,93.09
2022-12-04T04:42:25.374Z,92.92
2022-12-04T04:45:22.352Z,92.59
2022-12-04T04:48:30.188Z,92.57
2022-12-04T04:51:18.093Z,92.58
2022-12-04T04:54:09.933Z,92.55
2022-12-04T04:56:56.844Z,92.63
2022-12-04T04:59:43.303Z,92.38
2022-12-04T05:02:30.284Z,92.31
2022-12-04T05:05:20.437Z,92.47
2022-12-04T05:08:07.278Z,92.49
2022-12-04T05:10:54.534Z,92.39
2022-12-04T05:13:41.971Z,92.38
2022-12-04T05:16:28.579Z,92.31
2022-12-04T05:19:33.766Z,92.32
2022-12-04T05:22:32.202Z,92.42
2022-12-04T05:25:18.796Z,92.21
2022-12-04T05:28:06.027Z,92.13
2022-12-04T05:30:57.781Z,92.02
2022-12-04T05:33:44.478Z,91.96
2022-12-04T05:36:30.842Z,92.10
2022-12-04T05:39:17.597Z,92.04
2022-12-04T05:42:04.314Z,91.92
2022-12-04T05:44:51.063Z,92.01
2022-12-04T05:47:41.834Z,92.04
2022-12-04T05:50:29.511Z,92.11
2022-12-04T05:53:15.832Z,92.03
2022-12-04T05:56:04.446Z,91.89
2022-12-04T05:58:50.832Z,91.98
2022-12-04T06:01:37.516Z,92.05
2022-12-04T06:04:25.370Z,92.04
2022-12-04T06:07:12.008Z,92.03
2022-12-04T06:09:58.909Z,92.07
2022-12-04T06:12:45.779Z,92.10
2022-12-04T06:15:37.608Z,92.01
2022-12-04T06:18:24.056Z,91.79
2022-12-04T06:21:11.296Z,91.69
2022-12-04T06:23:58.171Z,91.73
2022-12-04T06:27:11.140Z,91.76
2022-12-04T06:29:51.677Z,91.41
2022-12-04T06:32:38.534Z,91.24
2022-12-04T06:35:25.024Z,91.21
2022-12-04T06:38:13.263Z,91.15
2022-12-04T06:40:59.781Z,91.14
2022-12-04T06:43:46.267Z,91.31
2022-12-04T06:46:34.505Z,91.17
2022-12-04T06:49:22.995Z,91.18
2022-12-04T06:52:09.679Z,91.06
2022-12-04T06:54:56.288Z,90.95
2022-12-04T06:57:42.911Z,90.84
2022-12-04T07:00:29.429Z,90.80
2022-12-04T07:03:15.485Z,90.48
2022-12-04T07:06:19.265Z,90.46
2022-12-04T07:09:07.657Z,90.66
2022-12-04T07:11:55.136Z,90.61
2022-12-04T07:14:41.717Z,90.51
2022-12-04T07:17:28.570Z,90.55
2022-12-04T07:20:15.149Z,90.56
2022-12-04T07:23:07.102Z,90.54
2022-12-04T07:25:54.005Z,90.75
2022-12-04T07:28:42.001Z,90.79
2022-12-04T07:31:30.634Z,90.77
2022-12-04T07:34:17.623Z,90.81
2022-12-04T07:37:04.341Z,90.99
2022-12-04T07:39:52.632Z,90.90
2022-12-04T07:42:39.768Z,90.98
2022-12-04T07:45:26.539Z,90.99
2022-12-04T07:48:13.666Z,91.10
2022-12-04T07:51:09.624Z,91.14
2022-12-04T07:54:03.810Z,91.09
2022-12-04T07:56:51.065Z,91.20
2022-12-04T07:59:37.909Z,91.20
2022-12-04T08:02:24.612Z,91.32
2022-12-04T08:05:11.339Z,91.21
2022-12-04T08:07:58.108Z,91.10
2022-12-04T08:10:45.247Z,91.05
2022-12-04T08:13:32.547Z,91.07
2022-12-04T08:16:19.505Z,90.83
2022-12-04T08:19:06.779Z,90.60
2022-12-04T08:21:56.981Z,90.61
2022-12-04T08:24:44.090Z,90.56
2022-12-04T08:27:30.914Z,90.39
2022-12-04T08:30:18.131Z,90.17
2022-12-04T08:33:05.239Z,90.03
2022-12-04T08:35:52.374Z,89.76
2022-12-04T08:38:40.239Z,89.63
2022-12-04T08:41:27.497Z,89.44
2022-12-04T08:44:14.183Z,89.63
2022-12-04T08:47:01.332Z,89.76
2022-12-04T08:49:48.375Z,89.66
2022-12-04T08:52:35.318Z,89.52
2022-12-04T08:55:22.468Z,89.36
2022-12-04T08:58:10.616Z,89.42
2022-12-04T09:00:57.214Z,89.17
2022-12-04T09:03:45.004Z,89.15
2022-12-04T09:06:33.399Z,89.13
2022-12-04T09:09:20.317Z,89.40
2022-12-04T09:12:07.425Z,89.31
2022-12-04T09:14:54.632Z,88.96
2022-12-04T09:17:41.232Z,89.02
2022-12-04T09:20:27.985Z,89.02
2022-12-04T09:23:14.638Z,88.88
2022-12-04T09:26:01.747Z,88.92
2022-12-04T09:28:49.601Z,88.95
2022-12-04T09:31:37.181Z,89.06
2022-12-04T09:34:24.138Z,88.79
2022-12-04T09:37:11.386Z,88.86
2022-12-04T09:39:58.645Z,88.90
2022-12-04T09:43:07.594Z,88.82
2022-12-04T09:45:59.962Z,88.85
2022-12-04T09:48:48.752Z,88.73
2022-12-04T09:51:38.558Z,88.81
2022-12-04T09:54:33.448Z,88.62
2022-12-04T09:57:41.614Z,88.63
2022-12-04T10:00:30.601Z,88.72
2022-12-04T10:03:20.934Z,88.56
2022-12-04T10:06:14.887Z,88.61
2022-12-04T10:09:22.672Z,88.51
2022-12-04T10:12:22.430Z,88.47
2022-12-04T10:15:33.239Z,88.56
2022-12-04T10:18:32.045Z,88.64
2022-12-04T10:21:54.479Z,88.54
2022-12-04T10:24:53.306Z,88.53
2022-12-04T10:27:50.899Z,88.38
2022-12-04T10:30:41.630Z,88.30
2022-12-04T10:34:06.412Z,88.23
2022-12-04T10:36:55.421Z,88.21
2022-12-04T10:39:50.411Z,88.19
2022-12-04T10:43:01.071Z,87.91
2022-12-04T10:45:48.294Z,87.82
2022-12-04T10:48:39.199Z,87.78
2022-12-04T10:51:26.233Z,88.00
2022-12-04T10:54:35.405Z,87.97
2022-12-04T10:57:21.987Z,88.03
2022-12-04T11:00:28.803Z,87.92
2022-12-04T11:03:28.591Z,87.82
2022-12-04T11:06:15.399Z,87.77
2022-12-04T11:09:03.951Z,87.78
2022-12-04T11:11:52.388Z,87.62
2022-12-04T11:14:44.046Z,87.89
2022-12-04T11:17:34.018Z,87.89
2022-12-04T11:20:25.255Z,87.69
2022-12-04T11:23:16.090Z,87.79
2022-12-04T11:26:06.237Z,87.96
2022-12-04T11:28:55.189Z,87.80
2022-12-04T11:31:42.042Z,87.84
2022-12-04T11:34:36.640Z,87.95
2022-12-04T11:37:30.388Z,88.01
2022-12-04T11:40:20.233Z,87.98
2022-12-04T11:43:14.860Z,87.87
2022-12-04T11:46:06.338Z,88.00
2022-12-04T11:48:53.184Z,88.06
2022-12-04T11:51:39.568Z,88.14
2022-12-04T11:54:51.973Z,88.45
2022-12-04T11:57:54.183Z,88.48
2022-12-04T12:01:19.608Z,88.42
2022-12-04T12:04:29.183Z,88.52
2022-12-04T12:07:38.075Z,88.47
2022-12-04T12:10:44.285Z,88.38
2022-12-04T12:13:46.890Z,88.20
2022-12-04T12:16:51.332Z,88.28
2022-12-04T12:20:00.170Z,88.31
2022-12-04T12:23:31.737Z,88.19
2022-12-04T12:26:18.989Z,88.19
2022-12-04T12:29:10.405Z,88.18
2022-12-04T12:32:09.807Z,88.32
2022-12-04T12:34:56.793Z,88.31
2022-12-04T12:38:17.493Z,88.44
2022-12-04T12:41:14.381Z,88.29
2022-12-04T12:44:17.669Z,88.34
2022-12-04T12:47:17.993Z,88.25
2022-12-04T12:50:13.810Z,88.31
2022-12-04T12:53:09.721Z,88.44
2022-12-04T12:56:00.914Z,88.29
2022-12-04T12:58:53.499Z,88.36
2022-12-04T13:02:16.345Z,88.50
2022-12-04T13:05:09.660Z,88.55
2022-12-04T13:08:03.603Z,88.66
2022-12-04T13:11:00.782Z,88.70
2022-12-04T13:13:54.159Z,88.71
2022-12-04T13:16:49.137Z,88.63
2022-12-04T13:19:46.399Z,88.68
2022-12-04T13:23:01.676Z,88.63
2022-12-04T13:25:56.525Z,88.53
2022-12-04T13:28:46.368Z,88.56
2022-12-04T13:31:53.796Z,88.55
2022-12-04T13:35:11.405Z,88.23
2022-12-04T13:38:23.869Z,88.20
2022-12-04T13:41:20.551Z,88.38
2022-12-04T13:44:20.611Z,88.30
2022-12-04T13:47:11.347Z,88.23
2022-12-04T13:50:19.564Z,88.08
2022-12-04T13:53:06.932Z,88.14
2022-12-04T13:55:57.172Z,88.27
2022-12-04T13:58:43.868Z,88.33
2022-12-04T14:01:41.033Z,87.95
2022-12-04T14:04:37.439Z,87.78
2022-12-04T14:07:26.325Z,87.82
2022-12-04T14:10:16.000Z,87.91
2022-12-04T14:13:16.325Z,87.99
2022-12-04T14:16:17.570Z,87.98
2022-12-04T14:19:05.852Z,88.09
2022-12-04T14:21:54.631Z,88.07
2022-12-04T14:24:41.339Z,88.08
2022-12-04T14:27:35.070Z,88.10
2022-12-04T14:30:28.929Z,88.03
2022-12-04T14:33:24.648Z,87.96
2022-12-04T14:36:19.280Z,87.93
2022-12-04T14:39:17.063Z,87.60
2022-12-04T14:42:13.128Z,87.58
2022-12-04T14:45:02.662Z,87.53
2022-12-04T14:48:03.332Z,87.50
2022-12-04T14:51:19.089Z,87.81
2022-12-04T14:54:26.795Z,87.92
2022-12-04T14:57:31.823Z,87.84
2022-12-04T15:00:22.344Z,87.87
2022-12-04T15:03:13.732Z,87.99
2022-12-04T15:06:12.044Z,87.91
2022-12-04T15:09:19.441Z,87.96
2022-12-04T15:12:33.568Z,88.07
2022-12-04T15:15:25.104Z,87.99
2022-12-04T15:18:16.878Z,87.83
2022-12-04T15:21:04.639Z,87.87
2022-12-04T15:23:51.602Z,87.90
2022-12-04T15:26:40.006Z,87.94
2022-12-04T15:29:31.609Z,88.05
2022-12-04T15:32:22.876Z,87.95
2022-12-04T15:35:49.097Z,88.07
2022-12-04T15:38:36.411Z,88.01
2022-12-04T15:41:31.184Z,87.77
2022-12-04T15:44:29.220Z,87.62
2022-12-04T15:47:20.134Z,87.75
2022-12-04T15:50:13.826Z,87.60
2022-12-04T15:53:15.639Z,87.76
2022-12-04T15:56:06.697Z,87.78
2022-12-04T15:58:58.013Z,87.79
2022-12-04T16:01:45.301Z,87.87
2022-12-04T16:04:38.851Z,87.64
2022-12-04T16:07:33.097Z,87.37
2022-12-04T16:10:36.010Z,87.39
2022-12-04T16:14:01.695Z,87.45
2022-12-04T16:16:52.982Z,87.73
2022-12-04T16:19:42.388Z,87.81
2022-12-04T16:22:30.220Z,87.89
2022-12-04T16:25:18.143Z,87.81
2022-12-04T16:28:05.016Z,87.73
2022-12-04T16:30:53.195Z,87.58
2022-12-04T16:33:40.973Z,87.38
2022-12-04T16:36:27.958Z,87.49
2022-12-04T16:39:15.211Z,87.59
2022-12-04T16:42:20.221Z,87.60
2022-12-04T16:45:29.716Z,87.56
2022-12-04T16:48:16.974Z,87.66
2022-12-04T16:51:04.211Z,87.54
2022-12-04T16:53:53.516Z,87.46
2022-12-04T16:56:40.808Z,87.41
2022-12-04T16:59:30.331Z,87.57
2022-12-04T17:02:26.381Z,87.62
2022-12-04T17:05:28.542Z,87.49
2022-12-04T17:08:16.304Z,87.48
2022-12-04T17:11:03.701Z,87.54
2022-12-04T17:13:51.176Z,87.50
2022-12-04T17:16:45.227Z,87.61
2022-12-04T17:19:32.494Z,87.55
2022-12-04T17:22:23.603Z,87.46
2022-12-04T17:25:12.219Z,87.42
2022-12-04T17:28:12.295Z,87.52
2022-12-04T17:31:01.673Z,87.67
2022-12-04T17:33:49.595Z,87.81
2022-12-04T17:36:37.559Z,87.86
2022-12-04T17:39:25.482Z,87.85
2022-12-04T17:42:12.303Z,87.79
2022-12-04T17:44:59.713Z,87.93
2022-12-04T17:47:46.819Z,87.86
2022-12-04T17:50:34.044Z,87.81
2022-12-04T17:53:20.882Z,87.59
2022-12-04T17:56:14.889Z,87.62
2022-12-04T17:59:02.239Z,87.57
2022-12-04T18:01:53.454Z,87.69
2022-12-04T18:04:40.708Z,87.51
2022-12-04T18:07:27.950Z,87.36
2022-12-04T18:10:14.988Z,87.43
2022-12-04T18:13:01.770Z,87.65
2022-12-04T18:15:48.803Z,87.76
2022-12-04T18:18:36.845Z,87.78
2022-12-04T18:21:24.690Z,87.71
2022-12-04T18:24:12.019Z,87.67
2022-12-04T18:26:59.270Z,87.53
2022-12-04T18:29:46.599Z,87.61
2022-12-04T18:32:34.013Z,87.55
2022-12-04T18:35:21.227Z,87.61
2022-12-04T18:38:08.357Z,87.62
2022-12-04T18:40:57.124Z,87.52
2022-12-04T18:43:45.636Z,87.61
2022-12-04T18:46:33.208Z,87.60
2022-12-04T18:49:19.839Z,87.67
2022-12-04T18:52:09.796Z,87.45
2022-12-04T18:54:56.811Z,87.46
2022-12-04T18:57:43.957Z,87.58
2022-12-04T19:00:30.484Z,87.59
2022-12-04T19:03:16.954Z,87.41
2022-12-04T19:06:04.077Z,87.36
2022-12-04T19:08:51.877Z,87.39
2022-12-04T19:11:39.696Z,87.20
2022-12-04T19:14:26.074Z,87.23
2022-12-04T19:17:23.952Z,87.39
2022-12-04T19:20:13.600Z,87.37
2022-12-04T19:22:59.746Z,87.28
2022-12-04T19:25:55.176Z,87.20
2022-12-04T19:28:41.520Z,87.28
2022-12-04T19:31:31.912Z,87.24
2022-12-04T19:34:18.661Z,87.31
2022-12-04T19:37:06.008Z,87.12
2022-12-04T19:39:52.365Z,87.26
2022-12-04T19:42:38.905Z,87.39
2022-12-04T19:45:25.405Z,87.28
2022-12-04T19:48:11.821Z,87.15
2022-12-04T19:51:03.819Z,87.04
2022-12-04T19:53:54.672Z,87.10
2022-12-04T19:56:41.870Z,87.05
2022-12-04T19:59:36.430Z,87.03
2022-12-04T20:02:24.652Z,87.12
2022-12-04T20:05:11.379Z,87.27
2022-12-04T20:10:43.897Z,87.34
2022-12-04T20:13:30.591Z,87.25
2022-12-04T20:16:18.605Z,87.32
2022-12-04T20:19:09.220Z,87.48
2022-12-04T20:21:59.307Z,87.37
2022-12-04T20:24:45.983Z,87.21
2022-12-04T20:27:33.445Z,87.25
2022-12-04T20:30:19.728Z,87.29
2022-12-04T20:33:06.478Z,87.12
2022-12-04T20:35:56.545Z,86.93
2022-12-04T20:38:43.507Z,86.90
2022-12-04T20:41:31.744Z,86.85
2022-12-04T20:44:20.119Z,86.76
2022-12-04T20:47:06.785Z,86.79
2022-12-04T20:49:53.048Z,86.79
2022-12-04T20:52:40.001Z,86.83
2022-12-04T20:55:26.241Z,86.88
2022-12-04T20:58:13.920Z,86.87
2022-12-04T21:01:12.204Z,86.80
2022-12-04T21:04:00.387Z,86.81
2022-12-04T21:06:47.080Z,86.79
2022-12-04T21:09:33.803Z,86.71
2022-12-04T21:12:43.179Z,86.69
2022-12-04T21:15:48.722Z,86.66
2022-12-04T21:18:36.945Z,86.65
2022-12-04T21:21:23.444Z,86.62
2022-12-04T21:24:12.879Z,86.71
2022-12-04T21:26:59.185Z,86.82
2022-12-04T21:29:45.868Z,86.75
2022-12-04T21:32:32.565Z,86.62
2022-12-04T21:35:18.999Z,86.56
2022-12-04T21:38:06.671Z,86.47
2022-12-04T21:40:53.232Z,86.55
2022-12-04T21:43:39.763Z,86.66
2022-12-04T21:46:26.070Z,86.47
2022-12-04T21:49:15.339Z,86.08
2022-12-04T21:52:01.910Z,86.08
2022-12-04T21:54:53.016Z,86.21
2022-12-04T21:57:41.494Z,86.25
2022-12-04T22:00:27.828Z,86.24
2022-12-04T22:03:15.095Z,86.32
2022-12-04T22:06:11.261Z,86.14
2022-12-04T22:08:58.089Z,86.15
2022-12-04T22:11:44.999Z,86.27
2022-12-04T22:14:32.961Z,86.36
2022-12-04T22:17:21.104Z,86.04
2022-12-04T22:20:08.638Z,86.06
2022-12-04T22:22:56.304Z,85.84
2022-12-04T22:25:45.566Z,85.94
2022-12-04T22:28:32.491Z,86.15
2022-12-04T22:31:21.289Z,86.20
2022-12-04T22:34:07.657Z,86.25
2022-12-04T22:36:54.106Z,86.43
2022-12-04T22:39:40.860Z,86.41
2022-12-04T22:42:27.602Z,86.50
2022-12-04T22:45:13.988Z,86.69
2022-12-04T22:48:00.679Z,86.78
2022-12-04T22:50:58.869Z,86.77
2022-12-04T22:53:54.529Z,86.82
2022-12-04T22:56:43.421Z,86.71
2022-12-04T22:59:30.080Z,86.80
2022-12-04T23:02:16.757Z,86.65
2022-12-04T23:05:03.860Z,86.62
2022-12-04T23:07:50.234Z,86.59
2022-12-04T23:10:38.276Z,86.82
2022-12-04T23:13:24.819Z,86.92
2022-12-04T23:16:15.572Z,86.80
2022-12-04T23:19:07.528Z,86.86
2022-12-04T23:21:57.224Z,86.84
2022-12-04T23:24:43.942Z,86.95
2022-12-04T23:27:33.336Z,86.92
2022-12-04T23:30:26.182Z,86.96
2022-12-04T23:33:13.777Z,86.95
2022-12-04T23:36:02.673Z,86.96
2022-12-04T23:38:49.953Z,86.85
2022-12-04T23:41:36.256Z,86.84
2022-12-04T23:44:22.494Z,86.84
2022-12-04T23:47:09.348Z,86.86
2022-12-04T23:49:56.257Z,86.75
2022-12-04T23:52:42.942Z,86.85
2022-12-04T23:55:34.082Z,86.95
2022-12-04T23:58:21.215Z,86.99
